Time,TemperatureF,DewpointF,PressureIn,WindDirection,WindDirectionDegrees,WindSpeedMPH,WindSpeedGustMPH,Humidity,HourlyPrecipIn,Conditions,Clouds,dailyrainin,SoftwareType,DateUTC
2013-03-11 00:00:00,34.9,30.6,30.26,SE,135,0.0,1.0,84,0.00,,,0.00,WeatherCatV1.10B1784,2013-03-11 04:00:00,
2013-03-11 00:05:00,34.9,30.6,30.26,SE,135,0.0,1.0,84,0.00,,,0.00,WeatherCatV1.10B1784,2013-03-11 04:05:00,
2013-03-11 00:10:00,34.9,30.6,30.26,SE,135,0.0,1.0,84,0.00,,,0.00,WeatherCatV1.10B1784,2013-03-11 04:10:00,
2013-03-11 00:15:00,34.9,30.6,30.26,SE,135,0.0,1.0,84,0.00,,,0.00,WeatherCatV1.10B1784,2013-03-11 04:15:00,
2013-03-11 00:20:00,34.9,30.6,30.26,SE,135,0.0,1.0,84,0.00,,,0.00,WeatherCatV1.10B1784,2013-03-11 04:20:00,
2013-03-11 00:25:00,34.1,30.4,30.27,SE,135,0.0,0.0,86,0.00,,,0.00,WeatherCatV1.10B1784,2013-03-11 04:25:00,
2013-03-11 00:30:00,34.1,30.4,30.27,SE,135,0.0,0.0,86,0.00,,,0.00,WeatherCatV1.10B1784,2013-03-11 04:30:00,
2013-03-11 00:35:00,34.1,30.4,30.27,SE,135,0.0,0.0,86,0.00,,,0.00,WeatherCatV1.10B1784,2013-03-11 04:35:00,
2013-03-11 00:40:00,34.1,30.4,30.27,SE,135,0.0,0.0,86,0.00,,,0.00,WeatherCatV1.10B1784,2013-03-11 04:40:00,
2013-03-11 00:45:00,34.1,30.4,30.27,SE,135,0.0,0.0,86,0.00,,,0.00,WeatherCatV1.10B1784,2013-03-11 04:45:00,
2013-03-11 00:50:00,34.1,30.4,30.27,SE,135,0.0,0.0,86,0.00,,,0.00,WeatherCatV1.10B1784,2013-03-11 04:50:00,
2013-03-11 00:55:00,33.4,29.9,30.27,SE,135,0.0,0.0,87,0.00,,,0.00,WeatherCatV1.10B1784,2013-03-11 04:55:00,
2013-03-11 01:00:00,33.4,29.9,30.27,SE,135,0.0,0.0,87,0.00,,,0.00,WeatherCatV1.10B1784,2013-03-11 05:00:00,
2013-03-11 01:05:00,33.4,29.9,30.27,SE,135,0.0,0.0,87,0.00,,,0.00,WeatherCatV1.10B1784,2013-03-11 05:05:00,
2013-03-11 01:10:00,33.4,29.9,30.27,SE,135,0.0,0.0,87,0.00,,,0.00,WeatherCatV1.10B1784,2013-03-11 05:10:00,
2013-03-11 01:15:00,33.4,29.9,30.27,SE,135,0.0,0.0,87,0.00,,,0.00,WeatherCatV1.10B1784,2013-03-11 05:15:00,
2013-03-11 01:20:00,33.4,29.9,30.27,SE,135,0.0,0.0,87,0.00,,,0.00,WeatherCatV1.10B1784,2013-03-11 05:20:00,
2013-03-11 01:25:00,34.7,31.2,30.26,SE,135,0.0,4.0,87,0.00,,,0.00,WeatherCatV1.10B1784,2013-03-11 05:25:00,
2013-03-11 01:30:00,34.7,31.2,30.26,SE,135,0.0,4.0,87,0.00,,,0.00,WeatherCatV1.10B1784,2013-03-11 05:30:00,
2013-03-11 01:35:00,34.7,31.2,30.26,SE,135,0.0,4.0,87,0.00,,,0.00,WeatherCatV1.10B1784,2013-03-11 05:35:00,
2013-03-11 01:40:00,34.7,31.2,30.26,SE,135,0.0,4.0,87,0.00,,,0.00,WeatherCatV1.10B1784,2013-03-11 05:40:00,
2013-03-11 01:45:00,34.7,31.2,30.26,SE,135,0.0,4.0,87,0.00,,,0.00,WeatherCatV1.10B1784,2013-03-11 05:45:00,
2013-03-11 01:50:00,34.7,31.2,30.26,SE,135,0.0,4.0,87,0.00,,,0.00,WeatherCatV1.10B1784,2013-03-11 05:50:00,
2013-03-11 01:55:00,34.6,30.8,30.26,South,180,1.0,7.0,86,0.00,,,0.00,WeatherCatV1.10B1784,2013-03-11 05:55:00,
2013-03-11 02:00:00,34.6,30.8,30.26,South,180,1.0,7.0,86,0.00,,,0.00,WeatherCatV1.10B1784,2013-03-11 06:00:00,
2013-03-11 02:05:00,34.6,30.8,30.26,South,180,1.0,7.0,86,0.00,,,0.00,WeatherCatV1.10B1784,2013-03-11 06:05:00,
2013-03-11 02:10:00,34.6,30.8,30.26,South,180,1.0,7.0,86,0.00,,,0.00,WeatherCatV1.10B1784,2013-03-11 06:10:00,
2013-03-11 02:15:00,34.6,30.8,30.26,South,180,1.0,7.0,86,0.00,,,0.00,WeatherCatV1.10B1784,2013-03-11 06:15:00,
2013-03-11 02:20:00,34.6,30.8,30.26,South,180,1.0,7.0,86,0.00,,,0.00,WeatherCatV1.10B1784,2013-03-11 06:20:00,
2013-03-11 02:25:00,34.5,30.8,30.28,SW,225,1.0,5.0,86,0.00,,,0.00,WeatherCatV1.10B1784,2013-03-11 06:25:00,
2013-03-11 02:30:00,34.5,30.8,30.28,SW,225,1.0,5.0,86,0.00,,,0.00,WeatherCatV1.10B1784,2013-03-11 06:30:00,
2013-03-11 02:35:00,34.5,30.8,30.28,SW,225,1.0,5.0,86,0.00,,,0.00,WeatherCatV1.10B1784,2013-03-11 06:35:00,
2013-03-11 02:40:00,34.5,30.8,30.28,SW,225,1.0,5.0,86,0.00,,,0.00,WeatherCatV1.10B1784,2013-03-11 06:40:00,
2013-03-11 02:45:00,34.5,30.8,30.28,SW,225,1.0,5.0,86,0.00,,,0.00,WeatherCatV1.10B1784,2013-03-11 06:45:00,
2013-03-11 02:50:00,34.5,30.8,30.28,SW,225,1.0,5.0,86,0.00,,,0.00,WeatherCatV1.10B1784,2013-03-11 06:50:00,
2013-03-11 02:55:00,33.8,30.3,30.27,SW,225,1.0,5.0,87,0.00,,,0.00,WeatherCatV1.10B1784,2013-03-11 06:55:00,
2013-03-11 03:00:00,33.8,30.3,30.27,SW,225,1.0,5.0,87,0.00,,,0.00,WeatherCatV1.10B1784,2013-03-11 07:00:00,
2013-03-11 03:05:00,33.8,30.3,30.27,SW,225,1.0,5.0,87,0.00,,,0.00,WeatherCatV1.10B1784,2013-03-11 07:05:00,
2013-03-11 03:10:00,33.8,30.3,30.27,SW,225,1.0,5.0,87,0.00,,,0.00,WeatherCatV1.10B1784,2013-03-11 07:10:00,
2013-03-11 03:15:00,33.8,30.3,30.27,SW,225,1.0,5.0,87,0.00,,,0.00,WeatherCatV1.10B1784,2013-03-11 07:15:00,
2013-03-11 03:20:00,33.8,30.3,30.27,SW,225,1.0,5.0,87,0.00,,,0.00,WeatherCatV1.10B1784,2013-03-11 07:20:00,
2013-03-11 03:25:00,33.1,29.9,30.25,South,180,1.0,5.0,88,0.00,,,0.00,WeatherCatV1.10B1784,2013-03-11 07:25:00,
2013-03-11 03:30:00,33.1,29.9,30.25,South,180,1.0,5.0,88,0.00,,,0.00,WeatherCatV1.10B1784,2013-03-11 07:30:00,
2013-03-11 03:35:00,33.1,29.9,30.25,South,180,1.0,5.0,88,0.00,,,0.00,WeatherCatV1.10B1784,2013-03-11 07:35:00,
2013-03-11 03:40:00,33.1,29.9,30.25,South,180,1.0,5.0,88,0.00,,,0.00,WeatherCatV1.10B1784,2013-03-11 07:40:00,
2013-03-11 03:45:00,33.1,29.9,30.25,South,180,1.0,5.0,88,0.00,,,0.00,WeatherCatV1.10B1784,2013-03-11 07:45:00,
2013-03-11 03:50:00,33.1,29.9,30.25,South,180,1.0,5.0,88,0.00,,,0.00,WeatherCatV1.10B1784,2013-03-11 07:50:00,
2013-03-11 03:55:00,33.3,30.4,30.24,WSW,248,1.0,11.0,89,0.00,,,0.00,WeatherCatV1.10B1784,2013-03-11 07:55:00,
2013-03-11 04:00:00,33.3,30.4,30.24,WSW,248,1.0,11.0,89,0.00,,,0.00,WeatherCatV1.10B1784,2013-03-11 08:00:00,
2013-03-11 04:05:00,33.3,30.4,30.24,WSW,248,1.0,11.0,89,0.00,,,0.00,WeatherCatV1.10B1784,2013-03-11 08:05:00,
2013-03-11 04:10:00,33.3,30.4,30.24,WSW,248,1.0,11.0,89,0.00,,,0.00,WeatherCatV1.10B1784,2013-03-11 08:10:00,
2013-03-11 04:15:00,33.3,30.4,30.24,WSW,248,1.0,11.0,89,0.00,,,0.00,WeatherCatV1.10B1784,2013-03-11 08:15:00,
2013-03-11 04:20:00,33.3,30.4,30.24,WSW,248,1.0,11.0,89,0.00,,,0.00,WeatherCatV1.10B1784,2013-03-11 08:20:00,
2013-03-11 04:25:00,33.2,30.3,30.24,WSW,248,1.0,8.0,89,0.00,,,0.00,WeatherCatV1.10B1784,2013-03-11 08:25:00,
2013-03-11 04:30:00,33.2,30.3,30.24,WSW,248,1.0,8.0,89,0.00,,,0.00,WeatherCatV1.10B1784,2013-03-11 08:30:00,
2013-03-11 04:35:00,33.2,30.3,30.24,WSW,248,1.0,8.0,89,0.00,,,0.00,WeatherCatV1.10B1784,2013-03-11 08:35:00,
2013-03-11 04:40:00,33.2,30.3,30.24,WSW,248,1.0,8.0,89,0.00,,,0.00,WeatherCatV1.10B1784,2013-03-11 08:40:00,
2013-03-11 04:45:00,33.2,30.3,30.24,WSW,248,1.0,8.0,89,0.00,,,0.00,WeatherCatV1.10B1784,2013-03-11 08:45:00,
2013-03-11 04:50:00,33.2,30.3,30.24,WSW,248,1.0,8.0,89,0.00,,,0.00,WeatherCatV1.10B1784,2013-03-11 08:50:00,
2013-03-11 04:55:00,32.9,30.0,30.23,WSW,248,1.0,9.0,89,0.00,,,0.00,WeatherCatV1.10B1784,2013-03-11 08:55:00,
2013-03-11 05:00:00,32.9,30.0,30.23,WSW,248,1.0,9.0,89,0.00,,,0.00,WeatherCatV1.10B1784,2013-03-11 09:00:00,
2013-03-11 05:05:00,32.9,30.0,30.23,WSW,248,1.0,9.0,89,0.00,,,0.00,WeatherCatV1.10B1784,2013-03-11 09:05:00,
2013-03-11 05:10:00,32.9,30.0,30.23,WSW,248,1.0,9.0,89,0.00,,,0.00,WeatherCatV1.10B1784,2013-03-11 09:10:00,
2013-03-11 05:15:00,32.9,30.0,30.23,WSW,248,1.0,9.0,89,0.00,,,0.00,WeatherCatV1.10B1784,2013-03-11 09:15:00,
2013-03-11 05:20:00,32.9,30.0,30.23,WSW,248,1.0,9.0,89,0.00,,,0.00,WeatherCatV1.10B1784,2013-03-11 09:20:00,
2013-03-11 05:33:00,31.9,29.3,30.21,South,174,1.0,1.0,90,0.00,,,0.00,WeatherCatV1.10B1784,2013-03-11 09:33:00,
2013-03-11 05:38:00,31.7,29.4,30.22,South,174,0.0,0.0,91,0.00,,,0.00,WeatherCatV1.10B1784,2013-03-11 09:38:00,
2013-03-11 05:43:00,31.6,29.3,30.22,South,174,0.0,1.0,91,0.00,,,0.00,WeatherCatV1.10B1784,2013-03-11 09:43:00,
2013-03-11 05:46:00,31.7,29.4,30.22,South,174,0.0,3.0,91,0.00,,,0.00,WeatherCatV1.10B1784,2013-03-11 09:46:00,
2013-03-11 05:51:00,31.9,29.6,30.22,South,174,0.0,4.0,91,0.00,,,0.00,WeatherCatV1.10B1784,2013-03-11 09:51:00,
2013-03-11 05:56:00,32.0,29.7,30.22,South,174,0.0,2.0,91,0.00,,,0.00,WeatherCatV1.10B1784,2013-03-11 09:56:00,
2013-03-11 06:01:00,31.9,29.6,30.22,South,174,0.0,0.0,91,0.00,,,0.00,WeatherCatV1.10B1784,2013-03-11 10:01:00,
2013-03-11 06:06:00,32.1,29.8,30.22,WSW,247,0.0,5.0,91,0.00,,,0.00,WeatherCatV1.10B1784,2013-03-11 10:06:00,
2013-03-11 06:11:00,32.2,29.9,30.22,SSW,194,0.0,3.0,91,0.00,,,0.00,WeatherCatV1.10B1784,2013-03-11 10:11:00,
2013-03-11 06:16:00,32.1,29.5,30.22,South,175,0.0,0.0,90,0.00,,,0.00,WeatherCatV1.10B1784,2013-03-11 10:16:00,
2013-03-11 06:21:00,32.0,29.7,30.22,South,175,0.0,2.0,91,0.00,,,0.00,WeatherCatV1.10B1784,2013-03-11 10:21:00,
2013-03-11 06:26:00,31.9,29.3,30.21,South,175,3.0,3.0,90,0.00,,,0.00,WeatherCatV1.10B1784,2013-03-11 10:26:00,
2013-03-11 06:31:00,31.7,29.1,30.21,South,172,4.0,6.0,90,0.00,,,0.00,WeatherCatV1.10B1784,2013-03-11 10:31:00,
2013-03-11 06:36:00,31.5,29.2,30.20,South,172,2.0,3.0,91,0.00,,,0.00,WeatherCatV1.10B1784,2013-03-11 10:36:00,
2013-03-11 06:41:00,31.5,29.2,30.21,South,172,1.0,4.0,91,0.00,,,0.00,WeatherCatV1.10B1784,2013-03-11 10:41:00,
2013-03-11 06:46:00,31.6,29.3,30.22,South,172,1.0,6.0,91,0.00,,,0.00,WeatherCatV1.10B1784,2013-03-11 10:46:00,
2013-03-11 06:51:00,31.5,29.2,30.22,South,172,0.0,3.0,91,0.00,,,0.00,WeatherCatV1.10B1784,2013-03-11 10:51:00,
2013-03-11 06:56:00,31.5,29.2,30.22,South,172,2.0,4.0,91,0.00,,,0.00,WeatherCatV1.10B1784,2013-03-11 10:56:00,
2013-03-11 07:01:00,31.6,29.3,30.22,SE,129,0.0,2.0,91,0.00,,,0.00,WeatherCatV1.10B1784,2013-03-11 11:01:00,
2013-03-11 07:06:00,31.6,29.3,30.21,SE,129,1.0,4.0,91,0.00,,,0.00,WeatherCatV1.10B1784,2013-03-11 11:06:00,
2013-03-11 07:11:00,31.5,29.2,30.21,SE,129,0.0,3.0,91,0.00,,,0.00,WeatherCatV1.10B1784,2013-03-11 11:11:00,
2013-03-11 07:16:00,31.5,29.2,30.21,SE,129,0.0,2.0,91,0.00,,,0.00,WeatherCatV1.10B1784,2013-03-11 11:16:00,
2013-03-11 07:21:00,31.6,29.3,30.21,SE,129,2.0,2.0,91,0.00,,,0.00,WeatherCatV1.10B1784,2013-03-11 11:21:00,
2013-03-11 07:26:00,31.5,29.2,30.21,SE,129,0.0,1.0,91,0.00,,,0.00,WeatherCatV1.10B1784,2013-03-11 11:26:00,
2013-03-11 07:31:00,31.6,29.3,30.21,SE,129,0.0,1.0,91,0.00,,,0.00,WeatherCatV1.10B1784,2013-03-11 11:31:00,
2013-03-11 07:36:00,31.7,29.4,30.22,SE,129,0.0,0.0,91,0.00,,,0.00,WeatherCatV1.10B1784,2013-03-11 11:36:00,
2013-03-11 07:41:00,31.7,29.4,30.22,SE,129,0.0,2.0,91,0.00,,,0.00,WeatherCatV1.10B1784,2013-03-11 11:41:00,
2013-03-11 07:46:00,31.8,29.5,30.22,SE,129,3.0,3.0,91,0.00,,,0.00,WeatherCatV1.10B1784,2013-03-11 11:46:00,
2013-03-11 07:51:00,32.0,29.7,30.22,SE,129,0.0,1.0,91,0.00,,,0.00,WeatherCatV1.10B1784,2013-03-11 11:51:00,
2013-03-11 07:56:00,32.3,30.0,30.22,SE,129,1.0,3.0,91,0.00,,,0.00,WeatherCatV1.10B1784,2013-03-11 11:56:00,
2013-03-11 08:01:00,32.5,30.2,30.21,SE,131,0.0,5.0,91,0.00,,,0.00,WeatherCatV1.10B1784,2013-03-11 12:01:00,
2013-03-11 08:06:00,32.9,30.6,30.21,SE,131,3.0,6.0,91,0.00,,,0.00,WeatherCatV1.10B1784,2013-03-11 12:06:00,
2013-03-11 08:11:00,33.1,30.5,30.21,SSE,152,0.0,4.0,90,0.00,,,0.00,WeatherCatV1.10B1784,2013-03-11 12:11:00,
2013-03-11 08:16:00,33.3,30.7,30.21,South,183,0.0,5.0,90,0.00,,,0.00,WeatherCatV1.10B1784,2013-03-11 12:16:00,
2013-03-11 08:21:00,33.6,30.7,30.21,SSE,166,0.0,8.0,89,0.00,,,0.00,WeatherCatV1.10B1784,2013-03-11 12:21:00,
2013-03-11 08:26:00,33.9,31.0,30.21,SSE,167,6.0,6.0,89,0.00,,,0.00,WeatherCatV1.10B1784,2013-03-11 12:26:00,
2013-03-11 08:31:00,34.3,31.4,30.21,SSE,161,4.0,8.0,89,0.00,,,0.00,WeatherCatV1.10B1784,2013-03-11 12:31:00,
2013-03-11 08:36:00,34.6,31.4,30.21,SSE,163,1.0,6.0,88,0.00,,,0.00,WeatherCatV1.10B1784,2013-03-11 12:36:00,
2013-03-11 08:41:00,35.1,31.9,30.21,SSE,167,5.0,8.0,88,0.00,,,0.00,WeatherCatV1.10B1784,2013-03-11 12:41:00,
2013-03-11 08:46:00,35.5,32.0,30.21,SSE,161,1.0,4.0,87,0.00,,,0.00,WeatherCatV1.10B1784,2013-03-11 12:46:00,
2013-03-11 08:51:00,35.7,31.9,30.21,SSE,164,4.0,10.0,86,0.00,,,0.00,WeatherCatV1.10B1784,2013-03-11 12:51:00,
2013-03-11 08:56:00,36.0,31.9,30.21,WSW,244,5.0,10.0,85,0.00,,,0.00,WeatherCatV1.10B1784,2013-03-11 12:56:00,
2013-03-11 09:01:00,36.4,32.3,30.21,South,171,7.0,10.0,85,0.00,,,0.00,WeatherCatV1.10B1784,2013-03-11 13:01:00,
2013-03-11 09:06:00,36.9,32.8,30.21,South,189,4.0,5.0,85,0.00,,,0.00,WeatherCatV1.10B1784,2013-03-11 13:06:00,
2013-03-11 09:11:00,37.4,32.7,30.21,SSE,163,7.0,8.0,83,0.00,,,0.00,WeatherCatV1.10B1784,2013-03-11 13:11:00,
2013-03-11 09:16:00,37.8,32.8,30.21,SSE,156,0.0,1.0,82,0.00,,,0.00,WeatherCatV1.10B1784,2013-03-11 13:16:00,
2013-03-11 09:21:00,38.3,33.3,30.21,SSE,148,3.0,4.0,82,0.00,,,0.00,WeatherCatV1.10B1784,2013-03-11 13:21:00,
2013-03-11 09:26:00,38.7,33.1,30.21,SSE,160,0.0,2.0,80,0.00,,,0.00,WeatherCatV1.10B1784,2013-03-11 13:26:00,
2013-03-11 09:31:00,39.1,33.5,30.21,SSE,147,7.0,8.0,80,0.00,,,0.00,WeatherCatV1.10B1784,2013-03-11 13:31:00,
2013-03-11 09:36:00,39.5,33.5,30.22,SW,228,3.0,8.0,79,0.00,,,0.00,WeatherCatV1.10B1784,2013-03-11 13:36:00,
2013-03-11 09:41:00,39.8,33.8,30.22,South,173,8.0,10.0,79,0.00,,,0.00,WeatherCatV1.10B1784,2013-03-11 13:41:00,
2013-03-11 09:46:00,39.7,33.4,30.21,ESE,108,2.0,9.0,78,0.00,,,0.00,WeatherCatV1.10B1784,2013-03-11 13:46:00,
2013-03-11 09:51:00,39.5,33.5,30.21,SW,221,9.0,9.0,79,0.00,,,0.00,WeatherCatV1.10B1784,2013-03-11 13:51:00,
2013-03-11 09:56:00,39.7,33.7,30.21,SW,236,6.0,8.0,79,0.00,,,0.00,WeatherCatV1.10B1784,2013-03-11 13:56:00,
2013-03-11 10:01:00,39.8,33.8,30.21,SSE,156,3.0,5.0,79,0.00,,,0.00,WeatherCatV1.10B1784,2013-03-11 14:01:00,
2013-03-11 10:06:00,40.4,34.4,30.21,SSE,160,8.0,11.0,79,0.00,,,0.00,WeatherCatV1.10B1784,2013-03-11 14:06:00,
2013-03-11 10:11:00,40.7,34.4,30.21,SW,229,5.0,10.0,78,0.00,,,0.00,WeatherCatV1.10B1784,2013-03-11 14:11:00,
2013-03-11 10:16:00,41.1,34.4,30.22,SSE,165,9.0,10.0,77,0.00,,,0.00,WeatherCatV1.10B1784,2013-03-11 14:16:00,
2013-03-11 10:21:00,41.5,34.8,30.22,SSE,158,4.0,4.0,77,0.00,,,0.00,WeatherCatV1.10B1784,2013-03-11 14:21:00,
2013-03-11 10:26:00,41.9,34.6,30.22,SSE,161,1.0,11.0,75,0.00,,,0.00,WeatherCatV1.10B1784,2013-03-11 14:26:00,
2013-03-11 10:31:00,42.0,34.7,30.22,South,173,2.0,7.0,75,0.00,,,0.00,WeatherCatV1.10B1784,2013-03-11 14:31:00,
2013-03-11 10:36:00,42.1,34.8,30.22,SSE,153,1.0,5.0,75,0.00,,,0.00,WeatherCatV1.10B1784,2013-03-11 14:36:00,
2013-03-11 10:41:00,42.2,34.5,30.22,SSE,157,0.0,8.0,74,0.00,,,0.00,WeatherCatV1.10B1784,2013-03-11 14:41:00,
2013-03-11 10:46:00,42.3,34.3,30.22,WSW,245,5.0,5.0,73,0.00,,,0.00,WeatherCatV1.10B1784,2013-03-11 14:46:00,
2013-03-11 10:51:00,42.2,33.8,30.22,WSW,240,5.0,8.0,72,0.00,,,0.00,WeatherCatV1.10B1784,2013-03-11 14:51:00,
2013-03-11 10:56:00,42.0,34.0,30.22,WSW,242,3.0,9.0,73,0.00,,,0.00,WeatherCatV1.10B1784,2013-03-11 14:56:00,
2013-03-11 11:01:00,42.2,34.2,30.22,SW,231,8.0,8.0,73,0.00,,,0.00,WeatherCatV1.10B1784,2013-03-11 15:01:00,
2013-03-11 11:06:00,42.3,34.3,30.22,WSW,247,4.0,7.0,73,0.00,,,0.00,WeatherCatV1.10B1784,2013-03-11 15:06:00,
2013-03-11 11:11:00,42.6,34.2,30.22,WSW,257,0.0,3.0,72,0.00,,,0.00,WeatherCatV1.10B1784,2013-03-11 15:11:00,
2013-03-11 11:16:00,43.1,34.3,30.22,South,171,1.0,11.0,71,0.00,,,0.00,WeatherCatV1.10B1784,2013-03-11 15:16:00,
2013-03-11 11:21:00,43.1,34.7,30.22,South,172,1.0,4.0,72,0.00,,,0.00,WeatherCatV1.10B1784,2013-03-11 15:21:00,
2013-03-11 11:26:00,43.4,35.0,30.22,SSE,167,5.0,10.0,72,0.00,,,0.00,WeatherCatV1.10B1784,2013-03-11 15:26:00,
2013-03-11 11:31:00,43.6,35.2,30.22,WSW,257,4.0,6.0,72,0.00,,,0.00,WeatherCatV1.10B1784,2013-03-11 15:31:00,
2013-03-11 11:36:00,43.9,35.1,30.21,WSW,242,0.0,1.0,71,0.00,,,0.00,WeatherCatV1.10B1784,2013-03-11 15:36:00,
2013-03-11 11:41:00,44.5,35.3,30.21,SSE,155,2.0,3.0,70,0.00,,,0.00,WeatherCatV1.10B1784,2013-03-11 15:41:00,
2013-03-11 11:46:00,45.0,35.5,30.21,SSE,148,9.0,10.0,69,0.00,,,0.00,WeatherCatV1.10B1784,2013-03-11 15:46:00,
2013-03-11 11:51:00,45.2,35.3,30.21,WSW,257,7.0,8.0,68,0.00,,,0.00,WeatherCatV1.10B1784,2013-03-11 15:51:00,
2013-03-11 11:56:00,45.3,35.4,30.21,WSW,244,4.0,8.0,68,0.00,,,0.00,WeatherCatV1.10B1784,2013-03-11 15:56:00,
2013-03-11 12:01:00,45.5,35.6,30.21,South,174,5.0,7.0,68,0.00,,,0.00,WeatherCatV1.10B1784,2013-03-11 16:01:00,
2013-03-11 12:06:00,45.7,35.0,30.21,WSW,244,0.0,1.0,66,0.00,,,0.00,WeatherCatV1.10B1784,2013-03-11 16:06:00,
2013-03-11 12:11:00,45.9,35.6,30.21,South,178,2.0,9.0,67,0.00,,,0.00,WeatherCatV1.10B1784,2013-03-11 16:11:00,
2013-03-11 12:16:00,46.3,35.2,30.21,SW,225,1.0,7.0,65,0.00,,,0.00,WeatherCatV1.10B1784,2013-03-11 16:16:00,
2013-03-11 12:21:00,46.8,35.7,30.20,SE,143,0.0,8.0,65,0.00,,,0.00,WeatherCatV1.10B1784,2013-03-11 16:21:00,
2013-03-11 12:26:00,46.9,35.4,30.21,SSE,152,4.0,8.0,64,0.00,,,0.00,WeatherCatV1.10B1784,2013-03-11 16:26:00,
2013-03-11 12:31:00,47.0,35.9,30.21,South,174,4.0,11.0,65,0.00,,,0.00,WeatherCatV1.10B1784,2013-03-11 16:31:00,
2013-03-11 12:36:00,46.9,35.4,30.21,SSE,161,5.0,6.0,64,0.00,,,0.00,WeatherCatV1.10B1784,2013-03-11 16:36:00,
2013-03-11 12:41:00,46.8,35.3,30.21,South,189,5.0,7.0,64,0.00,,,0.00,WeatherCatV1.10B1784,2013-03-11 16:41:00,
2013-03-11 12:46:00,46.6,35.5,30.20,SSE,162,3.0,4.0,65,0.00,,,0.00,WeatherCatV1.10B1784,2013-03-11 16:46:00,
2013-03-11 12:51:00,46.8,35.7,30.20,SSE,152,1.0,5.0,65,0.00,,,0.00,WeatherCatV1.10B1784,2013-03-11 16:51:00,
2013-03-11 12:56:00,47.0,35.5,30.20,SSE,154,1.0,2.0,64,0.00,,,0.00,WeatherCatV1.10B1784,2013-03-11 16:56:00,
2013-03-11 13:01:00,47.1,34.8,30.20,WSW,242,8.0,8.0,62,0.00,,,0.00,WeatherCatV1.10B1784,2013-03-11 17:01:00,
2013-03-11 13:06:00,47.1,34.8,30.20,South,174,0.0,2.0,62,0.00,,,0.00,WeatherCatV1.10B1784,2013-03-11 17:06:00,
2013-03-11 13:11:00,47.5,34.7,30.20,South,174,0.0,2.0,61,0.00,,,0.00,WeatherCatV1.10B1784,2013-03-11 17:11:00,
2013-03-11 13:16:00,47.7,34.5,30.19,SSE,167,0.0,4.0,60,0.00,,,0.00,WeatherCatV1.10B1784,2013-03-11 17:16:00,
2013-03-11 13:21:00,47.7,34.5,30.19,WSW,238,3.0,4.0,60,0.00,,,0.00,WeatherCatV1.10B1784,2013-03-11 17:21:00,
2013-03-11 13:26:00,47.5,34.7,30.18,WSW,246,4.0,4.0,61,0.00,,,0.00,WeatherCatV1.10B1784,2013-03-11 17:26:00,
2013-03-11 13:31:00,47.4,34.6,30.18,SSE,166,0.0,6.0,61,0.00,,,0.00,WeatherCatV1.10B1784,2013-03-11 17:31:00,
2013-03-11 13:36:00,47.5,34.3,30.18,WSW,237,0.0,5.0,60,0.00,,,0.00,WeatherCatV1.10B1784,2013-03-11 17:36:00,
2013-03-11 13:41:00,47.4,33.8,30.18,South,175,2.0,11.0,59,0.00,,,0.00,WeatherCatV1.10B1784,2013-03-11 17:41:00,
2013-03-11 13:46:00,47.5,33.9,30.17,SSE,156,6.0,7.0,59,0.00,,,0.00,WeatherCatV1.10B1784,2013-03-11 17:46:00,
2013-03-11 13:51:00,47.6,34.0,30.17,WSW,250,1.0,5.0,59,0.00,,,0.00,WeatherCatV1.10B1784,2013-03-11 17:51:00,
2013-03-11 13:56:00,48.0,33.9,30.17,SSE,159,2.0,2.0,58,0.00,,,0.00,WeatherCatV1.10B1784,2013-03-11 17:56:00,
2013-03-11 14:01:00,48.4,34.7,30.17,SSE,154,1.0,1.0,59,0.00,,,0.00,WeatherCatV1.10B1784,2013-03-11 18:01:00,
2013-03-11 14:06:00,48.6,34.9,30.17,SE,145,4.0,10.0,59,0.00,,,0.00,WeatherCatV1.10B1784,2013-03-11 18:06:00,
2013-03-11 14:11:00,48.8,34.2,30.17,SW,234,3.0,3.0,57,0.00,,,0.00,WeatherCatV1.10B1784,2013-03-11 18:11:00,
2013-03-11 14:16:00,49.0,34.9,30.17,SSE,165,0.0,4.0,58,0.00,,,0.00,WeatherCatV1.10B1784,2013-03-11 18:16:00,
2013-03-11 14:21:00,49.5,35.3,30.17,South,189,4.0,8.0,58,0.00,,,0.00,WeatherCatV1.10B1784,2013-03-11 18:21:00,
2013-03-11 14:26:00,49.4,35.7,30.16,SE,140,8.0,8.0,59,0.00,,,0.00,WeatherCatV1.10B1784,2013-03-11 18:26:00,
2013-03-11 14:31:00,49.2,35.5,30.16,SE,136,1.0,7.0,59,0.00,,,0.00,WeatherCatV1.10B1784,2013-03-11 18:31:00,
2013-03-11 14:36:00,49.3,36.0,30.16,SSE,159,4.0,4.0,60,0.00,,,0.00,WeatherCatV1.10B1784,2013-03-11 18:36:00,
2013-03-11 14:41:00,49.5,35.8,30.16,SSE,159,7.0,10.0,59,0.00,,,0.00,WeatherCatV1.10B1784,2013-03-11 18:41:00,
2013-03-11 14:46:00,49.3,36.0,30.16,SE,136,5.0,8.0,60,0.00,,,0.00,WeatherCatV1.10B1784,2013-03-11 18:46:00,
2013-03-11 14:51:00,49.6,36.3,30.15,SSE,152,1.0,6.0,60,0.00,,,0.00,WeatherCatV1.10B1784,2013-03-11 18:51:00,
2013-03-11 14:56:00,50.3,36.5,30.15,SSW,208,7.0,8.0,59,0.00,,,0.00,WeatherCatV1.10B1784,2013-03-11 18:56:00,
2013-03-11 15:01:00,50.6,36.8,30.15,SSE,161,4.0,5.0,59,0.00,,,0.00,WeatherCatV1.10B1784,2013-03-11 19:01:00,
2013-03-11 15:06:00,50.8,36.6,30.15,SSE,156,6.0,7.0,58,0.00,,,0.00,WeatherCatV1.10B1784,2013-03-11 19:06:00,
2013-03-11 15:11:00,50.7,36.5,30.15,SSE,162,3.0,8.0,58,0.00,,,0.00,WeatherCatV1.10B1784,2013-03-11 19:11:00,
2013-03-11 15:16:00,50.4,36.2,30.15,South,190,5.0,7.0,58,0.00,,,0.00,WeatherCatV1.10B1784,2013-03-11 19:16:00,
2013-03-11 15:21:00,50.5,36.7,30.15,SSE,148,3.0,7.0,59,0.00,,,0.00,WeatherCatV1.10B1784,2013-03-11 19:21:00,
2013-03-11 15:26:00,50.5,36.7,30.15,South,177,4.0,8.0,59,0.00,,,0.00,WeatherCatV1.10B1784,2013-03-11 19:26:00,
2013-03-11 15:31:00,50.6,36.8,30.15,SSE,163,3.0,4.0,59,0.00,,,0.00,WeatherCatV1.10B1784,2013-03-11 19:31:00,
2013-03-11 15:36:00,50.6,36.8,30.15,SE,146,4.0,7.0,59,0.00,,,0.00,WeatherCatV1.10B1784,2013-03-11 19:36:00,
2013-03-11 15:41:00,50.6,36.8,30.15,SSE,153,1.0,1.0,59,0.00,,,0.00,WeatherCatV1.10B1784,2013-03-11 19:41:00,
2013-03-11 15:46:00,50.5,36.7,30.15,SSE,148,7.0,12.0,59,0.00,,,0.00,WeatherCatV1.10B1784,2013-03-11 19:46:00,
2013-03-11 15:51:00,50.3,37.0,30.14,SSE,163,3.0,4.0,60,0.00,,,0.00,WeatherCatV1.10B1784,2013-03-11 19:51:00,
2013-03-11 15:56:00,50.3,36.5,30.14,SSE,150,3.0,8.0,59,0.00,,,0.00,WeatherCatV1.10B1784,2013-03-11 19:56:00,
2013-03-11 16:01:00,50.0,36.7,30.14,SSE,161,0.0,8.0,60,0.00,,,0.00,WeatherCatV1.10B1784,2013-03-11 20:01:00,
2013-03-11 16:06:00,49.9,36.6,30.14,SSE,164,4.0,5.0,60,0.00,,,0.00,WeatherCatV1.10B1784,2013-03-11 20:06:00,
2013-03-11 16:11:00,49.8,36.5,30.14,SSE,154,2.0,11.0,60,0.00,,,0.00,WeatherCatV1.10B1784,2013-03-11 20:11:00,
2013-03-11 16:16:00,49.7,36.4,30.14,SE,146,2.0,6.0,60,0.00,,,0.00,WeatherCatV1.10B1784,2013-03-11 20:16:00,
2013-03-11 16:21:00,49.6,36.7,30.14,South,176,6.0,6.0,61,0.00,,,0.00,WeatherCatV1.10B1784,2013-03-11 20:21:00,
2013-03-11 16:26:00,49.4,36.5,30.14,South,177,0.0,1.0,61,0.00,,,0.00,WeatherCatV1.10B1784,2013-03-11 20:26:00,
2013-03-11 16:31:00,49.5,36.2,30.14,SSW,200,4.0,6.0,60,0.00,,,0.00,WeatherCatV1.10B1784,2013-03-11 20:31:00,
2013-03-11 16:36:00,49.6,35.9,30.14,South,169,0.0,7.0,59,0.00,,,0.00,WeatherCatV1.10B1784,2013-03-11 20:36:00,
2013-03-11 16:41:00,49.7,36.0,30.14,SSE,161,4.0,5.0,59,0.00,,,0.00,WeatherCatV1.10B1784,2013-03-11 20:41:00,
2013-03-11 16:46:00,49.8,36.1,30.14,SSE,151,0.0,6.0,59,0.00,,,0.00,WeatherCatV1.10B1784,2013-03-11 20:46:00,
2013-03-11 16:51:00,49.7,36.0,30.13,SSE,160,5.0,6.0,59,0.00,,,0.00,WeatherCatV1.10B1784,2013-03-11 20:51:00,
2013-03-11 16:56:00,49.5,35.8,30.13,SSE,167,2.0,7.0,59,0.00,,,0.00,WeatherCatV1.10B1784,2013-03-11 20:56:00,
2013-03-11 17:01:00,49.3,36.0,30.13,SE,146,1.0,5.0,60,0.00,,,0.00,WeatherCatV1.10B1784,2013-03-11 21:01:00,
2013-03-11 17:06:00,49.2,35.9,30.13,South,171,2.0,8.0,60,0.00,,,0.00,WeatherCatV1.10B1784,2013-03-11 21:06:00,
2013-03-11 17:11:00,49.2,36.3,30.13,SE,141,2.0,6.0,61,0.00,,,0.00,WeatherCatV1.10B1784,2013-03-11 21:11:00,
2013-03-11 17:16:00,48.9,36.5,30.13,SE,144,3.0,5.0,62,0.00,,,0.00,WeatherCatV1.10B1784,2013-03-11 21:16:00,
2013-03-11 17:21:00,48.9,36.5,30.13,SSE,154,3.0,5.0,62,0.00,,,0.00,WeatherCatV1.10B1784,2013-03-11 21:21:00,
2013-03-11 17:26:00,48.8,36.8,30.13,SSE,152,1.0,3.0,63,0.00,,,0.00,WeatherCatV1.10B1784,2013-03-11 21:26:00,
2013-03-11 17:31:00,48.7,36.7,30.13,SSE,160,0.0,9.0,63,0.00,,,0.00,WeatherCatV1.10B1784,2013-03-11 21:31:00,
2013-03-11 17:36:00,48.6,36.6,30.13,South,175,8.0,10.0,63,0.00,,,0.00,WeatherCatV1.10B1784,2013-03-11 21:36:00,
2013-03-11 17:41:00,48.5,36.9,30.12,SSE,150,3.0,9.0,64,0.00,,,0.00,WeatherCatV1.10B1784,2013-03-11 21:41:00,
2013-03-11 17:46:00,48.4,37.2,30.12,South,173,4.0,4.0,65,0.00,,,0.00,WeatherCatV1.10B1784,2013-03-11 21:46:00,
2013-03-11 17:51:00,48.3,37.1,30.12,SSE,166,2.0,7.0,65,0.00,,,0.00,WeatherCatV1.10B1784,2013-03-11 21:51:00,
2013-03-11 17:56:00,48.1,36.9,30.12,SSE,163,1.0,8.0,65,0.00,,,0.00,WeatherCatV1.10B1784,2013-03-11 21:56:00,
2013-03-11 18:01:00,47.9,36.7,30.12,SSE,148,4.0,5.0,65,0.00,,,0.00,WeatherCatV1.10B1784,2013-03-11 22:01:00,
2013-03-11 18:06:00,47.8,36.6,30.12,South,190,2.0,9.0,65,0.00,,,0.00,WeatherCatV1.10B1784,2013-03-11 22:06:00,
2013-03-11 18:11:00,47.8,37.0,30.12,SSE,152,2.0,4.0,66,0.00,,,0.00,WeatherCatV1.10B1784,2013-03-11 22:11:00,
2013-03-11 18:16:00,47.6,36.8,30.12,SSE,158,0.0,3.0,66,0.00,,,0.00,WeatherCatV1.10B1784,2013-03-11 22:16:00,
2013-03-11 18:21:00,47.5,36.7,30.12,South,190,2.0,5.0,66,0.00,,,0.00,WeatherCatV1.10B1784,2013-03-11 22:21:00,
2013-03-11 18:26:00,47.4,36.6,30.12,SSE,148,3.0,7.0,66,0.00,,,0.00,WeatherCatV1.10B1784,2013-03-11 22:26:00,
2013-03-11 18:31:00,47.0,36.2,30.12,SSE,162,3.0,6.0,66,0.00,,,0.00,WeatherCatV1.10B1784,2013-03-11 22:31:00,
2013-03-11 18:36:00,46.8,36.0,30.12,SE,134,3.0,9.0,66,0.00,,,0.00,WeatherCatV1.10B1784,2013-03-11 22:36:00,
2013-03-11 18:41:00,46.6,36.2,30.12,SSE,151,1.0,6.0,67,0.00,,,0.00,WeatherCatV1.10B1784,2013-03-11 22:41:00,
2013-03-11 18:46:00,46.5,36.1,30.12,SE,145,5.0,9.0,67,0.00,,,0.00,WeatherCatV1.10B1784,2013-03-11 22:46:00,
2013-03-11 18:51:00,46.4,36.0,30.12,SSE,148,7.0,10.0,67,0.00,,,0.00,WeatherCatV1.10B1784,2013-03-11 22:51:00,
2013-03-11 18:56:00,46.2,35.9,30.12,SSW,208,8.0,9.0,67,0.00,,,0.00,WeatherCatV1.10B1784,2013-03-11 22:56:00,
2013-03-11 19:01:00,46.2,36.2,30.12,South,170,0.0,3.0,68,0.00,,,0.00,WeatherCatV1.10B1784,2013-03-11 23:01:00,
2013-03-11 19:06:00,46.1,36.1,30.12,SE,145,5.0,8.0,68,0.00,,,0.00,WeatherCatV1.10B1784,2013-03-11 23:06:00,
2013-03-11 19:11:00,46.0,36.4,30.12,South,171,0.0,8.0,69,0.00,,,0.00,WeatherCatV1.10B1784,2013-03-11 23:11:00,
2013-03-11 19:16:00,46.0,36.4,30.12,South,172,0.0,4.0,69,0.00,,,0.00,WeatherCatV1.10B1784,2013-03-11 23:16:00,
2013-03-11 19:21:00,45.8,36.6,30.12,South,177,0.0,5.0,70,0.00,,,0.00,WeatherCatV1.10B1784,2013-03-11 23:21:00,
2013-03-11 19:26:00,45.6,36.7,30.13,SSE,167,0.0,5.0,71,0.00,,,0.00,WeatherCatV1.10B1784,2013-03-11 23:26:00,
2013-03-11 19:31:00,45.5,36.7,30.12,South,173,0.0,3.0,71,0.00,,,0.00,WeatherCatV1.10B1784,2013-03-11 23:31:00,
2013-03-11 19:36:00,45.2,36.7,30.12,SSE,163,2.0,6.0,72,0.00,,,0.00,WeatherCatV1.10B1784,2013-03-11 23:36:00,
2013-03-11 19:41:00,45.0,36.9,30.12,SE,144,0.0,1.0,73,0.00,,,0.00,WeatherCatV1.10B1784,2013-03-11 23:41:00,
2013-03-11 19:46:00,44.7,37.3,30.12,SE,141,2.0,6.0,75,0.00,,,0.00,WeatherCatV1.10B1784,2013-03-11 23:46:00,
2013-03-11 19:51:00,44.5,37.7,30.12,SSE,156,3.0,7.0,77,0.00,,,0.00,WeatherCatV1.10B1784,2013-03-11 23:51:00,
2013-03-11 19:56:00,44.4,38.0,30.12,SE,145,4.0,8.0,78,0.00,,,0.00,WeatherCatV1.10B1784,2013-03-11 23:56:00,
2013-03-11 20:01:00,44.3,38.2,30.12,SSE,160,2.0,10.0,79,0.00,,,0.00,WeatherCatV1.10B1784,2013-03-12 00:01:00,
2013-03-11 20:06:00,44.1,38.0,30.11,South,171,3.0,6.0,79,0.00,,,0.00,WeatherCatV1.10B1784,2013-03-12 00:06:00,
2013-03-11 20:11:00,43.9,38.1,30.11,SSE,162,9.0,9.0,80,0.00,,,0.00,WeatherCatV1.10B1784,2013-03-12 00:11:00,
2013-03-11 20:16:00,43.7,38.3,30.11,SE,137,1.0,3.0,81,0.00,,,0.00,WeatherCatV1.10B1784,2013-03-12 00:16:00,
2013-03-11 20:21:00,43.7,38.6,30.11,SSE,148,5.0,8.0,82,0.00,,,0.00,WeatherCatV1.10B1784,2013-03-12 00:21:00,
2013-03-11 20:26:00,43.6,38.5,30.12,SE,142,1.0,6.0,82,0.00,,,0.00,WeatherCatV1.10B1784,2013-03-12 00:26:00,
2013-03-11 20:31:00,43.5,38.7,30.12,SSE,150,3.0,8.0,83,0.00,,,0.00,WeatherCatV1.10B1784,2013-03-12 00:31:00,
2013-03-11 20:36:00,43.3,38.5,30.12,SSE,158,1.0,7.0,83,0.00,,,0.00,WeatherCatV1.10B1784,2013-03-12 00:36:00,
2013-03-11 20:42:00,43.1,38.3,30.12,South,175,2.0,6.0,83,0.00,,,0.00,WeatherCatV1.10B1784,2013-03-12 00:42:00,
2013-03-11 20:47:00,43.1,38.6,30.12,SSE,153,3.0,5.0,84,0.00,,,0.00,WeatherCatV1.10B1784,2013-03-12 00:47:00,
2013-03-11 20:52:00,43.0,38.5,30.12,SSE,167,3.0,5.0,84,0.00,,,0.00,WeatherCatV1.10B1784,2013-03-12 00:52:00,
2013-03-11 20:57:00,42.8,38.3,30.12,WSW,238,4.0,7.0,84,0.00,,,0.00,WeatherCatV1.10B1784,2013-03-12 00:57:00,
2013-03-11 21:02:00,42.8,38.6,30.12,SE,146,1.0,5.0,85,0.00,,,0.00,WeatherCatV1.10B1784,2013-03-12 01:02:00,
2013-03-11 21:07:00,42.8,38.6,30.12,SSE,148,4.0,8.0,85,0.00,,,0.00,WeatherCatV1.10B1784,2013-03-12 01:07:00,
2013-03-11 21:12:00,42.7,38.5,30.12,SSE,148,2.0,2.0,85,0.00,,,0.00,WeatherCatV1.10B1784,2013-03-12 01:12:00,
2013-03-11 21:17:00,42.7,38.5,30.12,SSE,148,6.0,9.0,85,0.00,,,0.00,WeatherCatV1.10B1784,2013-03-12 01:17:00,
2013-03-11 21:22:00,42.7,38.5,30.12,SSE,149,1.0,4.0,85,0.00,,,0.00,WeatherCatV1.10B1784,2013-03-12 01:22:00,
2013-03-11 21:27:00,42.7,38.8,30.11,South,181,2.0,6.0,86,0.00,,,0.00,WeatherCatV1.10B1784,2013-03-12 01:27:00,
2013-03-11 21:32:00,42.7,38.5,30.11,SSE,149,2.0,5.0,85,0.00,,,0.00,WeatherCatV1.10B1784,2013-03-12 01:32:00,
2013-03-11 21:37:00,42.6,38.7,30.11,SSE,166,6.0,8.0,86,0.00,,,0.00,WeatherCatV1.10B1784,2013-03-12 01:37:00,
2013-03-11 21:42:00,42.5,38.6,30.12,SE,143,3.0,4.0,86,0.00,,,0.00,WeatherCatV1.10B1784,2013-03-12 01:42:00,
2013-03-11 21:47:00,42.6,38.7,30.12,South,183,4.0,6.0,86,0.00,,,0.00,WeatherCatV1.10B1784,2013-03-12 01:47:00,
2013-03-11 21:52:00,42.7,39.1,30.12,West,262,3.0,3.0,87,0.00,,,0.00,WeatherCatV1.10B1784,2013-03-12 01:52:00,
2013-03-11 21:57:00,42.8,39.2,30.12,SSE,154,5.0,5.0,87,0.00,,,0.00,WeatherCatV1.10B1784,2013-03-12 01:57:00,
2013-03-11 22:02:00,42.7,38.8,30.12,SSE,153,0.0,5.0,86,0.00,,,0.00,WeatherCatV1.10B1784,2013-03-12 02:02:00,
2013-03-11 22:07:00,42.6,39.0,30.11,SSE,158,3.0,3.0,87,0.00,,,0.00,WeatherCatV1.10B1784,2013-03-12 02:07:00,
2013-03-11 22:12:00,42.6,39.0,30.12,South,179,0.0,6.0,87,0.00,,,0.00,WeatherCatV1.10B1784,2013-03-12 02:12:00,
2013-03-11 22:17:00,42.5,38.9,30.11,SE,126,3.0,5.0,87,0.00,,,0.00,WeatherCatV1.10B1784,2013-03-12 02:17:00,
2013-03-11 22:22:00,42.5,39.2,30.11,SSE,149,0.0,5.0,88,0.00,,,0.00,WeatherCatV1.10B1784,2013-03-12 02:22:00,
2013-03-11 22:27:00,42.5,39.2,30.10,South,176,4.0,8.0,88,0.00,,,0.00,WeatherCatV1.10B1784,2013-03-12 02:27:00,
2013-03-11 22:32:00,42.4,40.2,30.11,SSE,161,0.0,3.0,92,0.00,,,0.00,WeatherCatV1.10B1784,2013-03-12 02:32:00,
2013-03-11 22:37:00,42.3,39.0,30.10,SE,136,1.0,5.0,88,0.00,,,0.00,WeatherCatV1.10B1784,2013-03-12 02:37:00,
2013-03-11 22:42:00,42.2,38.9,30.10,SE,136,0.0,0.0,88,0.00,,,0.00,WeatherCatV1.10B1784,2013-03-12 02:42:00,
2013-03-11 22:47:00,42.2,38.9,30.10,SE,144,1.0,3.0,88,0.00,,,0.00,WeatherCatV1.10B1784,2013-03-12 02:47:00,
2013-03-11 22:52:00,42.1,38.8,30.10,SE,144,0.0,4.0,88,0.00,,,0.00,WeatherCatV1.10B1784,2013-03-12 02:52:00,
2013-03-11 22:57:00,42.1,39.1,30.10,SSW,195,0.0,7.0,89,0.00,,,0.00,WeatherCatV1.10B1784,2013-03-12 02:57:00,
2013-03-11 23:02:00,42.2,39.2,30.10,SSW,202,2.0,4.0,89,0.00,,,0.00,WeatherCatV1.10B1784,2013-03-12 03:02:00,
2013-03-11 23:07:00,42.2,39.2,30.10,SSE,154,1.0,3.0,89,0.00,,,0.00,WeatherCatV1.10B1784,2013-03-12 03:07:00,
2013-03-11 23:12:00,42.1,39.1,30.10,SSE,157,0.0,8.0,89,0.00,,,0.00,WeatherCatV1.10B1784,2013-03-12 03:12:00,
2013-03-11 23:17:00,42.2,39.5,30.11,SW,219,1.0,6.0,90,0.00,,,0.00,WeatherCatV1.10B1784,2013-03-12 03:17:00,
2013-03-11 23:22:00,42.3,39.6,30.10,SSE,155,5.0,5.0,90,0.00,,,0.00,WeatherCatV1.10B1784,2013-03-12 03:22:00,
2013-03-11 23:27:00,42.3,39.6,30.11,SSE,165,9.0,10.0,90,0.00,,,0.00,WeatherCatV1.10B1784,2013-03-12 03:27:00,
2013-03-11 23:32:00,42.4,39.7,30.10,South,174,6.0,8.0,90,0.00,,,0.00,WeatherCatV1.10B1784,2013-03-12 03:32:00,
2013-03-11 23:37:00,42.5,39.8,30.10,WSW,242,0.0,5.0,90,0.00,,,0.00,WeatherCatV1.10B1784,2013-03-12 03:37:00,
2013-03-11 23:42:00,42.5,39.8,30.10,SSE,148,3.0,3.0,90,0.00,,,0.00,WeatherCatV1.10B1784,2013-03-12 03:42:00,
2013-03-11 23:47:00,42.4,39.7,30.10,SSE,152,2.0,10.0,90,0.00,,,0.00,WeatherCatV1.10B1784,2013-03-12 03:47:00,
2013-03-11 23:52:00,42.3,39.6,30.10,SW,221,7.0,10.0,90,0.00,,,0.00,WeatherCatV1.10B1784,2013-03-12 03:52:00,
2013-03-11 23:57:00,42.4,39.7,30.10,SSE,165,1.0,2.0,90,0.00,,,0.00,WeatherCatV1.10B1784,2013-03-12 03:57:00,